Time;durP1;ratioP1;P1;durP2;ratioP2;P2;SDS_P1;SDS_P2;PMS_P1;PMS_P2;Temp;Humidity;BMP_temperature;BMP_pressure;BME280_temperature;BME280_humidity;BME280_pressure;Samples;Min_cycle;Max_cycle;Signal;HPM_P1;HPM_P2
2021/04/04 00:01:33;;;;;;;3.53;2.30;;;2.30;99.90;;;;;;5080905;28;20660;-71
2021/04/04 00:03:59;;;;;;;6.43;2.53;;;2.30;99.90;;;;;;5080524;28;20276;-72
2021/04/04 00:06:24;;;;;;;4.27;2.20;;;2.30;99.90;;;;;;5082177;28;20263;-72
2021/04/04 00:08:50;;;;;;;5.83;2.60;;;2.20;99.90;;;;;;5079404;28;20171;-71
2021/04/04 00:11:16;;;;;;;7.10;2.20;;;2.20;99.90;;;;;;5082682;28;20278;-71
2021/04/04 00:13:42;;;;;;;7.03;3.10;;;2.10;99.90;;;;;;5078192;28;20287;-71
2021/04/04 00:16:08;;;;;;;15.40;2.93;;;2.10;99.90;;;;;;5080416;28;20523;-72
2021/04/04 00:18:33;;;;;;;4.53;2.60;;;2.10;99.90;;;;;;5080625;28;20422;-72
2021/04/04 00:20:59;;;;;;;12.63;3.37;;;2.10;99.90;;;;;;5080286;28;20248;-73
2021/04/04 00:23:24;;;;;;;16.03;3.93;;;2.00;99.90;;;;;;5081611;28;20247;-73
2021/04/04 00:25:50;;;;;;;10.90;2.23;;;1.90;99.90;;;;;;5079165;28;20216;-72
2021/04/04 00:28:15;;;;;;;4.23;1.90;;;1.90;99.90;;;;;;5081204;28;20173;-71
2021/04/04 00:30:41;;;;;;;12.60;2.93;;;1.80;99.90;;;;;;5079630;28;20183;-71
2021/04/04 00:33:07;;;;;;;6.30;3.63;;;1.80;99.90;;;;;;5080934;28;20253;-71
2021/04/04 00:35:33;;;;;;;8.00;2.90;;;1.80;99.90;;;;;;5080808;28;20194;-71
2021/04/04 00:37:58;;;;;;;4.27;1.93;;;1.70;99.90;;;;;;5079999;28;20186;-72
2021/04/04 00:40:30;;;;;;;12.73;2.97;;;1.70;99.90;;;;;;5082068;28;20217;-74
2021/04/04 00:42:56;;;;;;;11.30;3.47;;;1.70;99.90;;;;;;5079275;28;20541;-71
2021/04/04 00:45:27;;;;;;;2.77;2.07;;;1.70;99.90;;;;;;5082669;28;20414;-72
2021/04/04 00:47:53;;;;;;;10.43;2.70;;;1.70;99.90;;;;;;5078016;28;20913;-73
2021/04/04 00:50:21;;;;;;;13.23;2.50;;;1.60;99.90;;;;;;5081227;28;20459;-73
2021/04/04 00:52:47;;;;;;;9.63;3.67;;;1.60;99.90;;;;;;5078528;28;20419;-72
2021/04/04 00:55:15;;;;;;;11.00;3.20;;;1.50;99.90;;;;;;5079216;28;20434;-74
2021/04/04 00:57:41;;;;;;;3.50;2.37;;;1.50;99.90;;;;;;5085582;28;20236;-72
2021/04/04 01:00:13;;;;;;;4.80;2.20;;;1.50;99.90;;;;;;5084000;28;20479;-74
2021/04/04 01:02:40;;;;;;;4.70;2.50;;;1.50;99.90;;;;;;5084911;28;20865;-72
2021/04/04 01:05:07;;;;;;;4.20;2.50;;;1.40;99.90;;;;;;5084336;28;20446;-74
2021/04/04 01:07:34;;;;;;;8.37;1.67;;;1.40;99.90;;;;;;5082576;28;20982;-72
2021/04/04 01:10:03;;;;;;;8.10;2.60;;;1.40;99.90;;;;;;5083808;28;20930;-72
2021/04/04 01:12:39;;;;;;;4.97;2.83;;;1.40;99.90;;;;;;5084918;28;20844;-72
2021/04/04 01:15:10;;;;;;;7.23;3.27;;;1.30;99.90;;;;;;5084326;28;20472;-73
2021/04/04 01:17:37;;;;;;;6.90;2.90;;;1.30;99.90;;;;;;5084115;28;20416;-71
2021/04/04 01:20:21;;;;;;;4.20;1.90;;;1.40;99.90;;;;;;5084026;28;20981;-72
2021/04/04 01:22:58;;;;;;;14.20;2.50;;;1.40;99.90;;;;;;5081812;28;20453;-72
2021/04/04 01:25:53;;;;;;;14.67;2.73;;;1.30;99.90;;;;;;5082764;28;20415;-72
2021/04/04 01:28:26;;;;;;;5.70;2.30;;;1.30;99.90;;;;;;5071768;28;20478;-71
2021/04/04 01:30:52;;;;;;;8.60;2.00;;;1.30;99.90;;;;;;5082296;28;20427;-71
2021/04/04 01:33:19;;;;;;;7.90;2.20;;;1.30;99.90;;;;;;5085454;28;20991;-71
2021/04/04 01:35:49;;;;;;;3.30;1.90;;;1.30;99.90;;;;;;5080880;28;20437;-72
2021/04/04 01:38:19;;;;;;;3.60;2.10;;;1.30;99.90;;;;;;5085278;28;20416;-72
2021/04/04 01:40:47;;;;;;;16.77;2.57;;;1.30;99.90;;;;;;5076712;28;20493;-71
2021/04/04 01:43:15;;;;;;;6.00;2.13;;;1.30;99.90;;;;;;5084749;28;20540;-71
2021/04/04 01:45:43;;;;;;;3.97;3.10;;;1.30;99.90;;;;;;5081900;28;20420;-72
2021/04/04 01:48:12;;;;;;;6.10;2.57;;;1.20;99.90;;;;;;5082290;28;20420;-72
2021/04/04 01:50:38;;;;;;;2.23;2.00;;;1.20;99.90;;;;;;5084228;28;20428;-72
2021/04/04 01:53:05;;;;;;;2.67;2.10;;;1.20;99.90;;;;;;5083312;28;20441;-72
2021/04/04 01:55:31;;;;;;;3.43;2.13;;;1.10;99.90;;;;;;5083101;28;20430;-72
2021/04/04 01:57:57;;;;;;;4.30;2.17;;;1.10;99.90;;;;;;5083035;28;20428;-72
2021/04/04 02:00:28;;;;;;;3.33;1.90;;;1.00;99.90;;;;;;5081904;28;20437;-72
2021/04/04 02:02:55;;;;;;;3.23;1.83;;;1.00;99.90;;;;;;5084595;28;20428;-71
2021/04/04 02:05:22;;;;;;;1.70;1.20;;;1.00;99.90;;;;;;5081903;28;20523;-71
2021/04/04 02:07:50;;;;;;;4.63;2.07;;;1.00;99.90;;;;;;5084097;28;20424;-71
2021/04/04 02:10:24;;;;;;;4.77;2.70;;;1.00;99.90;;;;;;5082019;28;20401;-72
2021/04/04 02:12:52;;;;;;;5.53;2.80;;;0.90;99.90;;;;;;5083651;28;20402;-72
2021/04/04 02:15:21;;;;;;;5.80;2.37;;;0.90;99.90;;;;;;5081671;28;20517;-71
2021/04/04 02:17:48;;;;;;;3.13;2.10;;;0.90;99.90;;;;;;5084382;28;20420;-71
2021/04/04 02:20:20;;;;;;;3.27;2.20;;;0.90;99.90;;;;;;5080531;28;20442;-71
2021/04/04 02:22:47;;;;;;;2.47;2.20;;;0.90;99.90;;;;;;5083834;28;20423;-71
2021/04/04 02:25:15;;;;;;;3.50;2.20;;;0.80;99.90;;;;;;5082135;28;20461;-71
2021/04/04 02:27:45;;;;;;;6.53;2.50;;;0.80;99.90;;;;;;5083502;28;20439;-71
2021/04/04 02:30:13;;;;;;;4.07;2.50;;;0.70;99.90;;;;;;5082286;28;20521;-73
2021/04/04 02:32:47;;;;;;;5.27;2.50;;;0.70;99.90;;;;;;5080662;28;20448;-71
2021/04/04 02:35:17;;;;;;;7.63;2.17;;;0.70;99.90;;;;;;5083979;28;20411;-72
2021/04/04 02:37:44;;;;;;;2.87;2.07;;;0.70;99.90;;;;;;5081409;28;20962;-72
2021/04/04 02:40:12;;;;;;;2.00;1.80;;;0.60;99.90;;;;;;5082172;28;20435;-72
2021/04/04 02:42:38;;;;;;;4.27;2.63;;;0.60;99.90;;;;;;5081892;28;20421;-74
2021/04/04 02:45:06;;;;;;;2.60;2.23;;;0.60;99.90;;;;;;5082480;28;20415;-71
2021/04/04 02:47:54;;;;;;;4.37;1.97;;;0.60;99.90;;;;;;5082807;28;20426;-72
2021/04/04 02:50:22;;;;;;;4.23;2.57;;;0.50;99.90;;;;;;5080515;28;20411;-72
2021/04/04 02:52:49;;;;;;;3.50;2.10;;;0.50;99.90;;;;;;5080262;28;20415;-72
2021/04/04 02:55:16;;;;;;;6.20;2.30;;;0.50;99.90;;;;;;5083814;28;20785;-71
2021/04/04 02:57:44;;;;;;;6.90;1.67;;;0.50;99.90;;;;;;5081158;28;20433;-72
2021/04/04 03:00:10;;;;;;;2.50;2.30;;;0.50;99.90;;;;;;5082846;28;20832;-71
2021/04/04 03:02:40;;;;;;;5.70;2.30;;;0.50;99.90;;;;;;5081735;28;20419;-71
2021/04/04 03:05:07;;;;;;;3.73;2.13;;;0.50;99.90;;;;;;5081023;28;20502;-72
2021/04/04 03:07:36;;;;;;;7.33;2.70;;;0.50;99.90;;;;;;5083465;28;20441;-73
2021/04/04 03:10:04;;;;;;;4.63;1.97;;;0.40;99.90;;;;;;5081349;28;20437;-71
2021/04/04 03:12:32;;;;;;;2.50;1.80;;;0.40;99.90;;;;;;5080951;28;20437;-71
2021/04/04 03:15:00;;;;;;;5.10;2.20;;;0.40;99.90;;;;;;5083134;28;20496;-72
2021/04/04 03:17:28;;;;;;;3.07;1.83;;;0.40;99.90;;;;;;5078969;28;20427;-71
2021/04/04 03:19:54;;;;;;;3.17;2.67;;;0.40;99.90;;;;;;5082070;28;20465;-72
2021/04/04 03:22:22;;;;;;;3.37;1.57;;;0.40;99.90;;;;;;5078493;28;20454;-71
2021/04/04 03:24:50;;;;;;;6.63;1.90;;;0.30;99.90;;;;;;5079879;28;20425;-72
2021/04/04 03:27:18;;;;;;;5.17;2.20;;;0.30;99.90;;;;;;5083198;28;20478;-72
2021/04/04 03:29:45;;;;;;;3.43;1.93;;;0.30;99.90;;;;;;5080523;28;20891;-71
2021/04/04 03:32:11;;;;;;;2.13;2.00;;;0.30;99.90;;;;;;5082225;28;20419;-71
2021/04/04 03:34:38;;;;;;;4.30;1.73;;;0.30;99.90;;;;;;5081506;28;20455;-71
2021/04/04 03:37:04;;;;;;;3.03;1.87;;;0.30;99.90;;;;;;5081613;28;20427;-71
2021/04/04 03:39:30;;;;;;;4.67;2.87;;;0.20;99.90;;;;;;5082870;28;20504;-72
2021/04/04 03:41:58;;;;;;;6.10;2.87;;;0.20;99.90;;;;;;5081266;28;20420;-70
2021/04/04 03:44:31;;;;;;;2.20;2.00;;;0.20;99.90;;;;;;5082356;28;20596;-71
2021/04/04 03:46:58;;;;;;;3.20;3.00;;;0.20;99.90;;;;;;5080754;28;20425;-74
2021/04/04 03:49:25;;;;;;;5.00;3.40;;;0.20;99.90;;;;;;5083311;28;20938;-71
2021/04/04 03:51:56;;;;;;;1.90;1.60;;;0.10;99.90;;;;;;5079460;28;20533;-71
2021/04/04 03:54:24;;;;;;;4.33;2.07;;;0.10;99.90;;;;;;5079477;28;20482;-72
2021/04/04 03:56:51;;;;;;;3.63;1.97;;;0.20;99.90;;;;;;5079311;28;20423;-74
2021/04/04 03:59:20;;;;;;;7.00;2.30;;;0.10;99.90;;;;;;5082915;28;20919;-71
2021/04/04 04:01:47;;;;;;;10.73;2.90;;;0.10;99.90;;;;;;5079445;28;20881;-70
2021/04/04 04:04:14;;;;;;;5.40;2.53;;;0.10;99.90;;;;;;5081982;28;20439;-72
2021/04/04 04:06:41;;;;;;;2.33;2.20;;;0.10;99.90;;;;;;5080321;28;20426;-70
2021/04/04 04:09:08;;;;;;;3.43;2.40;;;0.10;99.90;;;;;;5081464;28;20397;-71
2021/04/04 04:11:38;;;;;;;2.73;2.17;;;0.10;99.90;;;;;;5080884;28;20480;-70
2021/04/04 04:14:06;;;;;;;5.23;3.10;;;0.00;99.90;;;;;;5080850;28;20451;-71
2021/04/04 04:16:35;;;;;;;8.70;2.90;;;0.00;99.90;;;;;;5082081;28;20426;-74
2021/04/04 04:19:01;;;;;;;5.57;2.37;;;0.10;99.90;;;;;;5079921;28;20913;-74
2021/04/04 04:21:27;;;;;;;6.03;2.53;;;0.10;99.90;;;;;;5082665;28;20497;-71
2021/04/04 04:23:53;;;;;;;5.73;2.23;;;0.10;99.90;;;;;;5078707;28;20548;-70
2021/04/04 04:26:19;;;;;;;4.50;2.30;;;0.00;99.90;;;;;;5082379;28;20486;-70
2021/04/04 04:28:45;;;;;;;4.87;2.27;;;0.00;99.90;;;;;;5079789;28;20965;-73
2021/04/04 04:31:21;;;;;;;7.63;2.93;;;0.00;99.90;;;;;;5080880;28;20488;-71
2021/04/04 04:33:50;;;;;;;5.60;2.97;;;-0.10;99.90;;;;;;5079378;28;20427;-71
2021/04/04 04:36:17;;;;;;;3.80;2.40;;;-0.10;99.90;;;;;;5081834;28;20411;-70
2021/04/04 04:38:43;;;;;;;4.70;2.53;;;-0.10;99.90;;;;;;5080592;28;20438;-72
2021/04/04 04:41:09;;;;;;;11.60;3.00;;;-0.10;99.90;;;;;;5081051;28;20467;-72
2021/04/04 04:43:39;;;;;;;7.07;3.20;;;-0.10;99.90;;;;;;5081128;28;20430;-72
2021/04/04 04:46:06;;;;;;;3.77;2.10;;;-0.10;99.90;;;;;;5080240;28;20412;-72
2021/04/04 04:48:33;;;;;;;2.10;1.90;;;-0.20;99.90;;;;;;5081711;28;20904;-70
2021/04/04 04:50:59;;;;;;;8.03;2.80;;;-0.10;99.90;;;;;;5079418;28;20759;-71
2021/04/04 04:53:25;;;;;;;3.90;2.03;;;-0.20;99.90;;;;;;5080825;28;20486;-73
2021/04/04 04:56:00;;;;;;;9.80;2.40;;;-0.20;99.90;;;;;;5078959;28;20509;-72
2021/04/04 04:58:28;;;;;;;4.27;2.80;;;-0.20;99.90;;;;;;5078821;28;20432;-71
2021/04/04 05:00:59;;;;;;;6.70;2.57;;;-0.20;99.90;;;;;;5078882;28;20848;-74
2021/04/04 05:03:25;;;;;;;6.27;2.40;;;-0.20;99.90;;;;;;5081942;28;20408;-70
2021/04/04 05:05:51;;;;;;;8.00;2.87;;;-0.10;99.90;;;;;;5078971;28;20561;-71
2021/04/04 05:08:19;;;;;;;5.60;2.80;;;-0.10;99.90;;;;;;5081393;28;20464;-71
2021/04/04 05:10:45;;;;;;;4.57;2.70;;;0.00;99.90;;;;;;5079694;28;20410;-71
2021/04/04 05:13:12;;;;;;;5.47;3.00;;;0.00;99.90;;;;;;5080433;28;20463;-71
2021/04/04 05:15:41;;;;;;;5.83;2.73;;;0.00;99.90;;;;;;5080533;28;20555;-71
2021/04/04 05:18:07;;;;;;;3.80;2.37;;;0.00;99.90;;;;;;5078613;28;20447;-74
2021/04/04 05:20:33;;;;;;;2.70;2.50;;;0.10;99.90;;;;;;5081376;28;20523;-73
2021/04/04 05:23:01;;;;;;;3.40;2.70;;;0.10;99.90;;;;;;5078704;28;20436;-72
2021/04/04 05:25:27;;;;;;;5.70;2.70;;;0.20;99.90;;;;;;5082245;28;20415;-71
2021/04/04 05:27:55;;;;;;;9.30;2.50;;;0.20;99.90;;;;;;5077529;28;20914;-72
2021/04/04 05:30:25;;;;;;;3.60;2.20;;;0.30;99.90;;;;;;5081962;28;20464;-74
2021/04/04 05:32:51;;;;;;;4.77;2.10;;;0.40;99.90;;;;;;5078436;28;20454;-71
2021/04/04 05:35:18;;;;;;;3.80;1.93;;;0.50;99.90;;;;;;5081372;28;20442;-71
2021/04/04 05:37:45;;;;;;;9.20;2.50;;;0.70;99.90;;;;;;5078264;28;20458;-72
2021/04/04 05:40:22;;;;;;;4.80;2.50;;;0.80;99.90;;;;;;5080333;28;20459;-72
2021/04/04 05:43:11;;;;;;;5.67;2.67;;;1.00;99.90;;;;;;5079620;28;20435;-74
2021/04/04 05:45:40;;;;;;;5.03;3.30;;;1.20;99.90;;;;;;5083198;28;20423;-71
2021/04/04 05:48:36;;;;;;;11.93;2.50;;;1.40;99.90;;;;;;5084319;28;20439;-71
2021/04/04 05:51:19;;;;;;;7.67;2.73;;;1.70;99.90;;;;;;5082852;28;20454;-74
2021/04/04 05:53:56;;;;;;;4.43;2.13;;;2.10;99.90;;;;;;5082445;28;20484;-72
2021/04/04 05:56:27;;;;;;;5.87;2.60;;;2.60;99.90;;;;;;5085348;28;20428;-71
2021/04/04 05:59:04;;;;;;;5.10;2.43;;;3.10;99.90;;;;;;5081670;28;20417;-70
2021/04/04 06:01:29;;;;;;;4.53;2.90;;;3.20;99.90;;;;;;5081800;28;20468;-70
2021/04/04 06:04:25;;;;;;;4.23;3.43;;;3.20;99.90;;;;;;5084668;28;20445;-71
2021/04/04 06:07:18;;;;;;;8.10;3.00;;;3.30;99.90;;;;;;5084628;28;20695;-71
2021/04/04 06:10:04;;;;;;;4.67;3.03;;;3.50;99.90;;;;;;5084040;28;20791;-70
2021/04/04 06:13:01;;;;;;;7.83;4.10;;;4.50;99.90;;;;;;5081465;28;20423;-70
2021/04/04 06:15:53;;;;;;;3.70;3.30;;;6.80;99.90;;;;;;5081780;28;20426;-70
2021/04/04 06:18:47;;;;;;;7.03;3.40;;;9.30;99.90;;;;;;5083956;28;20411;-70
2021/04/04 06:21:37;;;;;;;9.00;3.40;;;11.00;99.90;;;;;;5083248;28;20459;-70
2021/04/04 06:24:22;;;;;;;7.53;3.00;;;11.60;99.90;;;;;;5081268;28;20974;-70
2021/04/04 06:26:47;;;;;;;9.60;4.07;;;12.60;99.90;;;;;;5081915;28;20409;-68
2021/04/04 06:29:18;;;;;;;3.37;3.07;;;13.40;99.90;;;;;;5083096;28;20410;-70
2021/04/04 06:32:02;;;;;;;4.93;3.20;;;14.30;99.90;;;;;;5082454;28;20240;-70
2021/04/04 06:34:45;;;;;;;8.47;3.53;;;14.70;99.90;;;;;;5080973;28;20434;-70
2021/04/04 06:37:29;;;;;;;6.07;4.20;;;14.70;99.10;;;;;;5082351;28;20965;-71
2021/04/04 06:40:01;;;;;;;5.10;3.53;;;15.40;97.10;;;;;;5081124;28;20470;-70
2021/04/04 06:42:38;;;;;;;6.23;3.80;;;15.40;96.00;;;;;;5080467;28;20408;-70
2021/04/04 06:45:14;;;;;;;5.87;4.00;;;15.40;96.30;;;;;;5081646;28;20442;-70
2021/04/04 06:47:56;;;;;;;7.90;2.97;;;15.40;94.80;;;;;;5082514;28;20760;-70
2021/04/04 06:50:23;;;;;;;6.03;3.63;;;15.80;94.90;;;;;;5083831;28;20453;-70
2021/04/04 06:53:18;;;;;;;5.27;3.20;;;15.80;95.10;;;;;;5080643;28;20533;-70
2021/04/04 06:56:05;;;;;;;8.90;4.00;;;15.90;94.60;;;;;;5082618;28;21176;-69
2021/04/04 06:59:04;;;;;;;6.60;3.53;;;15.00;94.20;;;;;;5080356;28;21001;-70
2021/04/04 07:01:36;;;;;;;8.80;4.10;;;14.00;95.20;;;;;;5080523;28;21036;-70
2021/04/04 07:04:10;;;;;;;3.97;3.30;;;13.80;95.50;;;;;;5080329;28;20448;-70
2021/04/04 07:07:03;;;;;;;6.93;4.03;;;13.60;95.80;;;;;;5081840;28;20418;-70
2021/04/04 07:09:55;;;;;;;7.77;3.87;;;13.30;95.80;;;;;;5080417;28;20419;-70
2021/04/04 07:12:44;;;;;;;10.13;4.10;;;13.20;95.80;;;;;;5082878;28;20418;-70
2021/04/04 07:15:35;;;;;;;6.80;3.90;;;13.20;96.00;;;;;;5081590;28;20423;-68
2021/04/04 07:18:10;;;;;;;7.07;4.03;;;13.10;95.20;;;;;;5037384;28;20450;-69
2021/04/04 07:20:35;;;;;;;5.10;4.07;;;13.20;95.30;;;;;;5082503;28;20487;-69
2021/04/04 07:23:39;;;;;;;7.03;3.50;;;13.20;96.00;;;;;;5079696;28;20461;-69
2021/04/04 07:26:47;;;;;;;7.80;4.17;;;13.50;95.70;;;;;;5080813;28;20175;-69
2021/04/04 07:29:48;;;;;;;9.97;4.87;;;13.10;94.40;;;;;;5081746;28;20460;-70
2021/04/04 07:32:18;;;;;;;8.33;4.10;;;13.10;95.50;;;;;;5036371;28;20422;-68
2021/04/04 07:35:08;;;;;;;7.13;3.47;;;13.30;95.00;;;;;;5080232;28;20553;-69
2021/04/04 07:37:45;;;;;;;6.30;4.07;;;13.60;95.90;;;;;;5080118;28;20781;-70
2021/04/04 07:40:20;;;;;;;7.03;3.60;;;13.70;95.00;;;;;;5081755;28;20833;-70
2021/04/04 07:42:53;;;;;;;7.90;3.57;;;12.80;94.60;;;;;;5081391;28;20903;-69
2021/04/04 07:45:53;;;;;;;6.47;3.50;;;12.70;94.50;;;;;;5080678;28;20475;-70
2021/04/04 07:48:25;;;;;;;7.27;4.70;;;13.30;96.10;;;;;;5082390;28;20494;-70
2021/04/04 07:51:15;;;;;;;7.93;4.37;;;13.00;94.10;;;;;;5080185;28;21332;-70
2021/04/04 07:53:46;;;;;;;6.73;4.50;;;13.10;94.70;;;;;;5080565;28;20944;-69
2021/04/04 07:56:20;;;;;;;10.43;4.23;;;13.30;95.60;;;;;;5081519;28;20418;-71
2021/04/04 07:58:59;;;;;;;8.30;4.80;;;14.00;95.60;;;;;;5081431;28;20435;-70
2021/04/04 08:01:40;;;;;;;8.93;4.03;;;14.10;94.70;;;;;;5079518;28;20628;-69
2021/04/04 08:04:29;;;;;;;8.57;4.23;;;14.60;95.10;;;;;;5079685;28;20568;-69
2021/04/04 08:07:00;;;;;;;7.67;4.83;;;14.60;94.80;;;;;;5079301;28;20461;-69
2021/04/04 08:09:34;;;;;;;6.60;4.07;;;14.80;94.70;;;;;;5079639;28;20475;-70
2021/04/04 08:12:00;;;;;;;10.10;3.97;;;15.10;95.10;;;;;;5079052;28;20552;-69
2021/04/04 08:14:42;;;;;;;7.10;4.53;;;14.90;93.90;;;;;;5082719;28;20908;-69
2021/04/04 08:17:09;;;;;;;10.10;4.70;;;15.40;94.20;;;;;;5079977;28;20198;-70
2021/04/04 08:19:34;;;;;;;6.63;4.03;;;15.40;93.90;;;;;;5082204;28;20501;-69
2021/04/04 08:22:10;;;;;;;9.03;4.10;;;15.30;93.30;;;;;;5078914;28;20557;-69
2021/04/04 08:24:49;;;;;;;6.17;4.27;;;15.30;93.30;;;;;;5079595;28;20208;-70
2021/04/04 08:27:44;;;;;;;8.63;4.73;;;15.30;92.60;;;;;;5080636;28;21077;-69
2021/04/04 08:30:23;;;;;;;8.53;4.83;;;15.40;93.00;;;;;;5080471;28;20807;-70
2021/04/04 08:33:06;;;;;;;7.80;4.13;;;15.50;92.60;;;;;;5079530;28;21547;-69
2021/04/04 08:35:38;;;;;;;8.07;4.50;;;15.80;93.10;;;;;;5079367;28;20944;-70
2021/04/04 08:38:08;;;;;;;6.67;4.90;;;15.80;92.50;;;;;;5082239;28;20429;-70
2021/04/04 08:40:36;;;;;;;7.03;4.90;;;15.90;92.50;;;;;;5079320;28;20512;-71
2021/04/04 08:43:03;;;;;;;6.70;4.70;;;15.90;91.80;;;;;;5080763;28;20414;-71
2021/04/04 08:45:47;;;;;;;11.23;6.10;;;15.40;91.90;;;;;;5077750;28;20490;-69
2021/04/04 08:48:15;;;;;;;10.30;4.80;;;15.80;91.60;;;;;;5080410;28;21005;-70
2021/04/04 08:50:43;;;;;;;8.03;5.07;;;15.70;91.60;;;;;;5080953;28;20433;-70
2021/04/04 08:53:37;;;;;;;7.80;5.03;;;16.00;91.80;;;;;;5079412;28;20449;-71
2021/04/04 08:56:03;;;;;;;7.33;4.60;;;15.90;91.60;;;;;;5071377;28;20430;-69
2021/04/04 08:58:35;;;;;;;10.73;5.47;;;15.90;91.70;;;;;;5082050;28;20421;-70
2021/04/04 09:01:05;;;;;;;7.40;4.53;;;16.30;91.50;;;;;;5078924;28;20470;-70
2021/04/04 09:03:33;;;;;;;15.33;5.20;;;16.50;91.00;;;;;;5078308;28;20435;-69
2021/04/04 09:06:01;;;;;;;6.17;5.30;;;16.20;91.30;;;;;;5078938;28;20501;-69
2021/04/04 09:08:27;;;;;;;8.83;5.13;;;16.30;91.00;;;;;;5078637;28;20426;-69
2021/04/04 09:10:53;;;;;;;8.20;4.50;;;16.40;90.80;;;;;;5081771;28;20429;-70
2021/04/04 09:13:20;;;;;;;8.10;4.60;;;16.40;91.20;;;;;;5079415;28;20823;-70
2021/04/04 09:15:55;;;;;;;11.57;5.20;;;16.70;91.60;;;;;;5080052;28;20298;-69
2021/04/04 09:18:22;;;;;;;10.07;5.03;;;16.30;90.00;;;;;;5083370;28;20773;-69
2021/04/04 09:20:49;;;;;;;12.60;5.50;;;16.50;90.10;;;;;;5084553;28;21397;-69
2021/04/04 09:23:18;;;;;;;9.10;5.50;;;16.70;90.20;;;;;;5083654;28;20576;-70
2021/04/04 09:25:53;;;;;;;9.07;5.00;;;17.30;90.30;;;;;;5084048;28;20786;-70
2021/04/04 09:28:21;;;;;;;6.97;4.40;;;17.20;89.40;;;;;;5083228;28;20425;-70
2021/04/04 09:30:47;;;;;;;8.20;4.47;;;16.60;88.40;;;;;;5084344;28;20521;-70
2021/04/04 09:33:17;;;;;;;5.60;3.67;;;17.00;87.70;;;;;;5083856;28;20999;-70
2021/04/04 09:35:44;;;;;;;6.70;4.10;;;16.90;88.10;;;;;;5083691;28;20226;-71
2021/04/04 09:38:12;;;;;;;7.50;4.97;;;17.00;87.40;;;;;;5084492;28;20421;-71
2021/04/04 09:40:40;;;;;;;9.23;4.33;;;17.10;86.30;;;;;;5082772;28;20968;-71
2021/04/04 09:43:15;;;;;;;3.87;3.57;;;16.90;85.30;;;;;;5085362;28;20549;-71
2021/04/04 09:45:41;;;;;;;3.43;3.13;;;16.80;85.60;;;;;;5084192;28;20469;-71
2021/04/04 09:48:23;;;;;;;6.17;3.20;;;16.80;86.80;;;;;;5082668;28;20828;-69
2021/04/04 09:51:02;;;;;;;5.77;3.77;;;16.90;82.10;;;;;;5083646;28;20425;-70
2021/04/04 09:53:35;;;;;;;7.97;3.90;;;16.70;84.70;;;;;;5081576;28;20576;-70
2021/04/04 09:56:07;;;;;;;5.87;4.03;;;17.50;83.30;;;;;;5082039;28;20448;-71
2021/04/04 09:58:33;;;;;;;3.50;3.20;;;17.60;82.50;;;;;;5081642;28;20430;-70
2021/04/04 10:01:01;;;;;;;3.80;3.50;;;17.70;79.00;;;;;;5085286;28;20544;-70
2021/04/04 10:03:26;;;;;;;4.60;3.63;;;17.90;79.10;;;;;;5081304;28;20295;-69
2021/04/04 10:05:53;;;;;;;5.70;3.50;;;17.60;80.00;;;;;;5084456;28;20422;-69
2021/04/04 10:08:18;;;;;;;6.30;4.17;;;17.70;80.40;;;;;;5082685;28;20168;-70
2021/04/04 10:10:46;;;;;;;11.00;4.23;;;17.90;79.70;;;;;;5083269;28;20419;-70
2021/04/04 10:13:12;;;;;;;5.20;3.07;;;17.70;81.40;;;;;;5083302;28;20196;-70
2021/04/04 10:15:40;;;;;;;5.27;4.03;;;17.40;77.70;;;;;;5082367;28;20812;-70
2021/04/04 10:18:06;;;;;;;5.30;3.70;;;17.20;80.90;;;;;;5084316;28;20425;-73
2021/04/04 10:20:34;;;;;;;5.70;4.00;;;17.40;80.70;;;;;;5081461;28;20916;-69
2021/04/04 10:23:00;;;;;;;8.17;4.30;;;17.70;79.80;;;;;;5081432;28;20429;-72
2021/04/04 10:25:26;;;;;;;5.10;4.40;;;18.20;80.30;;;;;;5085361;28;20414;-70
2021/04/04 10:28:09;;;;;;;8.47;4.63;;;18.30;79.90;;;;;;5080935;28;20180;-70
2021/04/04 10:30:37;;;;;;;5.17;3.83;;;18.30;79.40;;;;;;5081539;28;20188;-70
2021/04/04 10:33:23;;;;;;;6.47;3.67;;;18.20;80.30;;;;;;5083958;28;20871;-71
2021/04/04 10:35:49;;;;;;;7.30;4.20;;;18.70;79.70;;;;;;5083417;28;20450;-71
2021/04/04 10:38:18;;;;;;;6.53;3.60;;;18.40;77.90;;;;;;5082476;28;20513;-70
2021/04/04 10:40:54;;;;;;;7.23;3.97;;;18.50;78.20;;;;;;5082298;28;20463;-71
2021/04/04 10:43:33;;;;;;;4.90;3.60;;;18.60;77.30;;;;;;5081639;28;20434;-70
2021/04/04 10:46:05;;;;;;;5.17;4.10;;;18.10;75.60;;;;;;5081149;28;20411;-70
2021/04/04 10:48:34;;;;;;;5.30;3.50;;;18.40;77.20;;;;;;5080601;28;20441;-70
2021/04/04 10:51:00;;;;;;;4.83;3.30;;;18.60;78.80;;;;;;5096618;28;20419;-71
2021/04/04 10:53:26;;;;;;;4.83;3.40;;;19.00;81.30;;;;;;5083690;28;20966;-70
2021/04/04 10:55:52;;;;;;;5.37;2.97;;;19.00;79.80;;;;;;5081407;28;20462;-71
2021/04/04 10:58:22;;;;;;;5.93;4.30;;;19.30;75.60;;;;;;5082863;28;20181;-71
2021/04/04 11:00:48;;;;;;;4.40;3.70;;;19.30;76.70;;;;;;5081723;28;20504;-70
2021/04/04 11:03:14;;;;;;;11.13;4.50;;;19.30;76.70;;;;;;5081976;28;20439;-70
2021/04/04 11:05:40;;;;;;;5.60;3.40;;;19.10;75.80;;;;;;5082802;28;20509;-70
2021/04/04 11:08:06;;;;;;;5.17;3.40;;;18.50;75.30;;;;;;5080999;28;20422;-70
2021/04/04 11:10:32;;;;;;;8.63;3.60;;;17.80;78.40;;;;;;5083848;28;20877;-70
2021/04/04 11:13:01;;;;;;;4.40;3.53;;;18.00;80.70;;;;;;5080295;28;20419;-71
2021/04/04 11:15:30;;;;;;;5.40;3.93;;;18.10;77.70;;;;;;5083985;28;20173;-70
2021/04/04 11:17:58;;;;;;;4.43;4.03;;;18.00;79.40;;;;;;5080424;28;20454;-70
2021/04/04 11:20:24;;;;;;;3.23;3.03;;;18.10;78.90;;;;;;5083292;28;20464;-71
2021/04/04 11:22:51;;;;;;;5.20;3.97;;;18.30;79.10;;;;;;5080752;28;20504;-70
2021/04/04 11:25:17;;;;;;;4.60;3.57;;;18.10;75.80;;;;;;5082289;28;20423;-69
2021/04/04 11:27:46;;;;;;;7.53;3.80;;;18.20;76.40;;;;;;5081622;28;20418;-70
2021/04/04 11:30:31;;;;;;;11.17;3.97;;;18.20;75.30;;;;;;5080278;28;20955;-71
2021/04/04 11:33:32;;;;;;;6.40;3.47;;;18.00;76.70;;;;;;5079456;28;20419;-70
2021/04/04 11:36:12;;;;;;;4.40;3.80;;;17.30;76.30;;;;;;5017131;28;20429;-69
2021/04/04 11:39:03;;;;;;;4.70;4.10;;;16.50;75.10;;;;;;5075891;28;20433;-70
2021/04/04 11:41:29;;;;;;;8.33;3.27;;;16.10;76.30;;;;;;5079602;28;20461;-70
2021/04/04 11:44:31;;;;;;;7.40;4.30;;;15.80;75.90;;;;;;5081421;28;20438;-71
2021/04/04 11:47:01;;;;;;;3.90;2.80;;;15.80;77.40;;;;;;5037713;28;20253;-70
2021/04/04 11:49:45;;;;;;;3.23;2.80;;;16.00;79.20;;;;;;5083369;28;20417;-70
2021/04/04 11:52:11;;;;;;;5.27;4.10;;;16.30;77.60;;;;;;5080852;28;20460;-71
2021/04/04 11:54:56;;;;;;;3.43;3.13;;;16.60;79.90;;;;;;5082848;28;21084;-70
2021/04/04 11:57:37;;;;;;;4.13;3.33;;;16.80;75.40;;;;;;5080952;28;20234;-71
2021/04/04 12:00:15;;;;;;;7.53;3.27;;;16.20;75.40;;;;;;5079759;28;20458;-70
2021/04/04 12:03:00;;;;;;;5.40;3.07;;;16.10;76.30;;;;;;5081324;28;20464;-70
2021/04/04 12:05:30;;;;;;;4.83;3.07;;;15.40;75.40;;;;;;5082752;28;20417;-70
2021/04/04 12:08:00;;;;;;;6.60;3.10;;;15.30;77.30;;;;;;5079205;28;20417;-70
2021/04/04 12:10:28;;;;;;;4.50;3.70;;;15.30;75.10;;;;;;5081433;28;20865;-70
2021/04/04 12:12:55;;;;;;;6.73;3.20;;;15.50;75.00;;;;;;5079132;28;20457;-70
2021/04/04 12:15:25;;;;;;;4.53;3.57;;;15.40;74.40;;;;;;5082057;28;20423;-69
2021/04/04 12:17:53;;;;;;;7.43;3.30;;;15.60;76.00;;;;;;5079769;28;20781;-70
2021/04/04 12:20:39;;;;;;;7.63;3.30;;;15.60;74.20;;;;;;5081697;28;20549;-70
2021/04/04 12:23:10;;;;;;;9.23;3.70;;;15.00;75.80;;;;;;5078825;28;20423;-69
2021/04/04 12:25:36;;;;;;;5.73;2.80;;;14.90;77.00;;;;;;5080731;28;20422;-70
2021/04/04 12:28:03;;;;;;;4.27;2.70;;;15.00;77.90;;;;;;5078900;28;20419;-70
2021/04/04 12:30:39;;;;;;;6.37;2.90;;;15.30;75.20;;;;;;5082876;28;20504;-70
2021/04/04 12:33:11;;;;;;;5.33;3.67;;;15.10;75.20;;;;;;5078967;28;20492;-70
2021/04/04 12:35:43;;;;;;;2.90;2.70;;;15.10;76.30;;;;;;5080591;28;20426;-70
2021/04/04 12:38:19;;;;;;;4.30;2.77;;;15.40;78.20;;;;;;5079611;28;20418;-70
2021/04/04 12:40:44;;;;;;;3.60;3.13;;;15.50;79.60;;;;;;5080631;28;20487;-70
2021/04/04 12:43:10;;;;;;;4.43;3.70;;;15.70;78.00;;;;;;5079635;28;20473;-69
2021/04/04 12:45:38;;;;;;;4.20;2.53;;;15.60;76.70;;;;;;5081893;28;20286;-69
2021/04/04 12:48:23;;;;;;;11.03;3.80;;;15.40;76.80;;;;;;5078977;28;20204;-69
2021/04/04 12:50:50;;;;;;;5.80;3.10;;;14.80;73.70;;;;;;5080961;28;20414;-70
2021/04/04 12:53:30;;;;;;;6.30;3.43;;;14.70;76.90;;;;;;5083293;28;20439;-68
2021/04/04 12:55:57;;;;;;;2.77;2.53;;;14.70;75.50;;;;;;5083311;28;20416;-69
2021/04/04 12:58:30;;;;;;;4.43;3.30;;;15.00;76.30;;;;;;5085595;28;20501;-69
2021/04/04 13:00:55;;;;;;;5.47;3.43;;;15.10;80.70;;;;;;5083053;28;20802;-69
2021/04/04 13:03:22;;;;;;;6.10;3.10;;;15.20;80.30;;;;;;5085150;28;20449;-69
2021/04/04 13:05:51;;;;;;;4.63;3.20;;;15.30;79.70;;;;;;5084186;28;20199;-69
2021/04/04 13:08:22;;;;;;;4.80;3.07;;;15.00;79.80;;;;;;5084711;28;20924;-69
2021/04/04 13:10:54;;;;;;;4.40;3.30;;;15.00;80.10;;;;;;5083939;28;20453;-70
2021/04/04 13:13:27;;;;;;;4.23;3.20;;;14.90;79.60;;;;;;5084751;28;20469;-69
2021/04/04 13:15:57;;;;;;;6.03;3.37;;;14.90;77.60;;;;;;5083428;28;20435;-69